sensor_id;sensor_type;location;lat;lon;timestamp;P1;durP1;ratioP1;P2;durP2;ratioP2
7263;SDS011;3673;52.480;13.348;2022-09-09T00:00:55;7.72;;;6.85;;
7263;SDS011;3673;52.480;13.348;2022-09-09T00:03:37;7.63;;;6.90;;
7263;SDS011;3673;52.480;13.348;2022-09-09T00:06:14;7.90;;;6.60;;
7263;SDS011;3673;52.480;13.348;2022-09-09T00:08:51;8.32;;;6.80;;
7263;SDS011;3673;52.480;13.348;2022-09-09T00:11:28;7.50;;;6.80;;
7263;SDS011;3673;52.480;13.348;2022-09-09T00:16:40;8.70;;;7.03;;
7263;SDS011;3673;52.480;13.348;2022-09-09T00:19:15;8.05;;;7.30;;
7263;SDS011;3673;52.480;13.348;2022-09-09T00:21:51;8.02;;;7.22;;
7263;SDS011;3673;52.480;13.348;2022-09-09T00:24:32;8.52;;;7.20;;
7263;SDS011;3673;52.480;13.348;2022-09-09T00:27:08;8.10;;;7.30;;
7263;SDS011;3673;52.480;13.348;2022-09-09T00:29:46;7.88;;;7.18;;
7263;SDS011;3673;52.480;13.348;2022-09-09T00:32:20;8.95;;;7.88;;
7263;SDS011;3673;52.480;13.348;2022-09-09T00:34:51;8.45;;;7.65;;
7263;SDS011;3673;52.480;13.348;2022-09-09T00:37:23;11.95;;;7.53;;
7263;SDS011;3673;52.480;13.348;2022-09-09T00:39:53;9.10;;;8.20;;
7263;SDS011;3673;52.480;13.348;2022-09-09T00:42:25;8.88;;;7.95;;
7263;SDS011;3673;52.480;13.348;2022-09-09T00:45:10;8.45;;;7.55;;
7263;SDS011;3673;52.480;13.348;2022-09-09T00:47:56;8.65;;;7.85;;
7263;SDS011;3673;52.480;13.348;2022-09-09T00:50:42;10.98;;;8.52;;
7263;SDS011;3673;52.480;13.348;2022-09-09T00:53:20;9.27;;;8.35;;
7263;SDS011;3673;52.480;13.348;2022-09-09T00:56:00;9.60;;;8.18;;
7263;SDS011;3673;52.480;13.348;2022-09-09T00:58:39;11.80;;;7.85;;
7263;SDS011;3673;52.480;13.348;2022-09-09T01:01:10;8.82;;;7.93;;
7263;SDS011;3673;52.480;13.348;2022-09-09T01:03:41;8.20;;;7.50;;
7263;SDS011;3673;52.480;13.348;2022-09-09T01:06:19;8.45;;;7.75;;
7263;SDS011;3673;52.480;13.348;2022-09-09T01:09:05;8.18;;;7.35;;
7263;SDS011;3673;52.480;13.348;2022-09-09T01:14:30;8.13;;;7.32;;
7263;SDS011;3673;52.480;13.348;2022-09-09T01:17:11;9.55;;;8.65;;
7263;SDS011;3673;52.480;13.348;2022-09-09T01:19:50;9.73;;;7.15;;
7263;SDS011;3673;52.480;13.348;2022-09-09T01:22:32;9.25;;;8.35;;
7263;SDS011;3673;52.480;13.348;2022-09-09T01:25:12;7.75;;;7.05;;
7263;SDS011;3673;52.480;13.348;2022-09-09T01:27:56;8.80;;;7.90;;
7263;SDS011;3673;52.480;13.348;2022-09-09T01:33:00;10.60;;;7.25;;
7263;SDS011;3673;52.480;13.348;2022-09-09T01:35:33;7.90;;;7.15;;
7263;SDS011;3673;52.480;13.348;2022-09-09T01:38:09;9.82;;;7.78;;
7263;SDS011;3673;52.480;13.348;2022-09-09T01:40:36;8.18;;;7.35;;
7263;SDS011;3673;52.480;13.348;2022-09-09T01:43:05;7.93;;;7.13;;
7263;SDS011;3673;52.480;13.348;2022-09-09T01:45:32;8.68;;;7.22;;
7263;SDS011;3673;52.480;13.348;2022-09-09T01:48:00;8.50;;;7.57;;
7263;SDS011;3673;52.480;13.348;2022-09-09T01:50:28;7.85;;;7.15;;
7263;SDS011;3673;52.480;13.348;2022-09-09T01:52:56;8.55;;;7.75;;
7263;SDS011;3673;52.480;13.348;2022-09-09T01:55:28;7.93;;;7.13;;
7263;SDS011;3673;52.480;13.348;2022-09-09T01:58:01;9.23;;;7.82;;
7263;SDS011;3673;52.480;13.348;2022-09-09T02:00:48;6.95;;;6.28;;
7263;SDS011;3673;52.480;13.348;2022-09-09T02:03:23;7.47;;;6.78;;
7263;SDS011;3673;52.480;13.348;2022-09-09T02:05:55;7.78;;;6.97;;
7263;SDS011;3673;52.480;13.348;2022-09-09T02:08:33;8.20;;;7.40;;
7263;SDS011;3673;52.480;13.348;2022-09-09T02:11:10;6.93;;;6.32;;
7263;SDS011;3673;52.480;13.348;2022-09-09T02:13:42;8.48;;;7.03;;
7263;SDS011;3673;52.480;13.348;2022-09-09T02:16:12;8.70;;;6.88;;
7263;SDS011;3673;52.480;13.348;2022-09-09T02:18:48;7.55;;;6.82;;
7263;SDS011;3673;52.480;13.348;2022-09-09T02:21:20;10.63;;;7.60;;
7263;SDS011;3673;52.480;13.348;2022-09-09T02:23:49;8.27;;;7.20;;
7263;SDS011;3673;52.480;13.348;2022-09-09T02:26:19;10.13;;;6.82;;
7263;SDS011;3673;52.480;13.348;2022-09-09T02:28:50;7.63;;;6.93;;
7263;SDS011;3673;52.480;13.348;2022-09-09T02:31:21;8.23;;;7.38;;
7263;SDS011;3673;52.480;13.348;2022-09-09T02:33:51;8.20;;;7.13;;
7263;SDS011;3673;52.480;13.348;2022-09-09T02:36:23;7.85;;;7.05;;
7263;SDS011;3673;52.480;13.348;2022-09-09T02:38:54;8.27;;;7.47;;
7263;SDS011;3673;52.480;13.348;2022-09-09T02:41:24;9.02;;;7.28;;
7263;SDS011;3673;52.480;13.348;2022-09-09T02:43:58;9.52;;;7.15;;
7263;SDS011;3673;52.480;13.348;2022-09-09T02:46:46;7.65;;;6.85;;
7263;SDS011;3673;52.480;13.348;2022-09-09T02:49:35;8.32;;;6.65;;
7263;SDS011;3673;52.480;13.348;2022-09-09T02:52:15;9.48;;;6.22;;
7263;SDS011;3673;52.480;13.348;2022-09-09T02:54:47;7.57;;;6.70;;
7263;SDS011;3673;52.480;13.348;2022-09-09T02:57:21;8.13;;;6.72;;
7263;SDS011;3673;52.480;13.348;2022-09-09T02:59:55;7.82;;;7.03;;
7263;SDS011;3673;52.480;13.348;2022-09-09T03:02:25;9.60;;;7.90;;
7263;SDS011;3673;52.480;13.348;2022-09-09T03:04:52;7.65;;;6.95;;
7263;SDS011;3673;52.480;13.348;2022-09-09T03:07:20;8.35;;;7.55;;
7263;SDS011;3673;52.480;13.348;2022-09-09T03:09:47;10.35;;;7.53;;
7263;SDS011;3673;52.480;13.348;2022-09-09T03:12:14;10.27;;;7.88;;
7263;SDS011;3673;52.480;13.348;2022-09-09T03:14:42;7.70;;;6.90;;
7263;SDS011;3673;52.480;13.348;2022-09-09T03:17:12;8.95;;;7.13;;
7263;SDS011;3673;52.480;13.348;2022-09-09T03:19:39;9.20;;;6.97;;
7263;SDS011;3673;52.480;13.348;2022-09-09T03:22:06;7.57;;;6.70;;
7263;SDS011;3673;52.480;13.348;2022-09-09T03:24:35;9.43;;;6.45;;
7263;SDS011;3673;52.480;13.348;2022-09-09T03:27:03;7.75;;;6.70;;
7263;SDS011;3673;52.480;13.348;2022-09-09T03:29:30;7.35;;;6.63;;
7263;SDS011;3673;52.480;13.348;2022-09-09T03:31:57;10.43;;;6.63;;
7263;SDS011;3673;52.480;13.348;2022-09-09T03:34:26;7.13;;;6.32;;
7263;SDS011;3673;52.480;13.348;2022-09-09T03:36:53;6.97;;;6.38;;
7263;SDS011;3673;52.480;13.348;2022-09-09T03:39:20;7.68;;;6.88;;
7263;SDS011;3673;52.480;13.348;2022-09-09T03:41:47;8.32;;;7.43;;
7263;SDS011;3673;52.480;13.348;2022-09-09T03:44:14;8.70;;;7.75;;
7263;SDS011;3673;52.480;13.348;2022-09-09T03:46:41;9.05;;;6.32;;
7263;SDS011;3673;52.480;13.348;2022-09-09T03:49:08;7.43;;;6.38;;
7263;SDS011;3673;52.480;13.348;2022-09-09T03:51:38;9.73;;;5.90;;
7263;SDS011;3673;52.480;13.348;2022-09-09T03:54:05;8.27;;;6.28;;
7263;SDS011;3673;52.480;13.348;2022-09-09T03:56:35;9.57;;;7.38;;
7263;SDS011;3673;52.480;13.348;2022-09-09T03:59:03;7.05;;;6.00;;
7263;SDS011;3673;52.480;13.348;2022-09-09T04:01:30;7.70;;;6.50;;
7263;SDS011;3673;52.480;13.348;2022-09-09T04:03:57;6.45;;;5.80;;
7263;SDS011;3673;52.480;13.348;2022-09-09T04:06:24;9.35;;;5.93;;
7263;SDS011;3673;52.480;13.348;2022-09-09T04:08:53;9.35;;;6.35;;
7263;SDS011;3673;52.480;13.348;2022-09-09T04:11:20;11.43;;;6.20;;
7263;SDS011;3673;52.480;13.348;2022-09-09T04:13:47;8.82;;;6.45;;
7263;SDS011;3673;52.480;13.348;2022-09-09T04:16:14;7.45;;;5.90;;
7263;SDS011;3673;52.480;13.348;2022-09-09T04:18:42;6.90;;;5.95;;
7263;SDS011;3673;52.480;13.348;2022-09-09T04:21:09;7.93;;;5.70;;
7263;SDS011;3673;52.480;13.348;2022-09-09T04:23:37;6.78;;;5.13;;
7263;SDS011;3673;52.480;13.348;2022-09-09T04:26:06;6.78;;;5.88;;
7263;SDS011;3673;52.480;13.348;2022-09-09T04:28:34;8.45;;;6.25;;
7263;SDS011;3673;52.480;13.348;2022-09-09T04:31:05;8.68;;;5.78;;
7263;SDS011;3673;52.480;13.348;2022-09-09T04:33:34;8.30;;;6.22;;
7263;SDS011;3673;52.480;13.348;2022-09-09T04:36:01;7.32;;;5.38;;
7263;SDS011;3673;52.480;13.348;2022-09-09T04:38:29;12.88;;;8.60;;
7263;SDS011;3673;52.480;13.348;2022-09-09T04:40:55;7.85;;;6.80;;
7263;SDS011;3673;52.480;13.348;2022-09-09T04:43:24;12.77;;;8.88;;
7263;SDS011;3673;52.480;13.348;2022-09-09T04:45:55;29.30;;;22.75;;
7263;SDS011;3673;52.480;13.348;2022-09-09T04:48:24;13.77;;;7.68;;
7263;SDS011;3673;52.480;13.348;2022-09-09T04:50:57;7.72;;;6.03;;
7263;SDS011;3673;52.480;13.348;2022-09-09T04:53:26;10.75;;;5.75;;
7263;SDS011;3673;52.480;13.348;2022-09-09T04:56:01;6.97;;;5.80;;
7263;SDS011;3673;52.480;13.348;2022-09-09T05:01:02;9.98;;;5.65;;
7263;SDS011;3673;52.480;13.348;2022-09-09T05:03:33;7.38;;;5.75;;
7263;SDS011;3673;52.480;13.348;2022-09-09T05:06:04;9.95;;;5.95;;
7263;SDS011;3673;52.480;13.348;2022-09-09T05:08:33;6.55;;;5.70;;
7263;SDS011;3673;52.480;13.348;2022-09-09T05:11:00;7.65;;;5.63;;
7263;SDS011;3673;52.480;13.348;2022-09-09T05:13:27;11.02;;;5.65;;
7263;SDS011;3673;52.480;13.348;2022-09-09T05:15:58;6.20;;;5.60;;
7263;SDS011;3673;52.480;13.348;2022-09-09T05:18:25;6.43;;;5.28;;
7263;SDS011;3673;52.480;13.348;2022-09-09T05:20:52;8.60;;;5.72;;
7263;SDS011;3673;52.480;13.348;2022-09-09T05:23:24;9.88;;;5.95;;
7263;SDS011;3673;52.480;13.348;2022-09-09T05:25:57;7.28;;;6.35;;
7263;SDS011;3673;52.480;13.348;2022-09-09T05:28:25;6.85;;;5.72;;
7263;SDS011;3673;52.480;13.348;2022-09-09T05:30:58;8.85;;;4.95;;
7263;SDS011;3673;52.480;13.348;2022-09-09T05:33:28;5.68;;;4.93;;
7263;SDS011;3673;52.480;13.348;2022-09-09T05:35:59;7.97;;;5.35;;
7263;SDS011;3673;52.480;13.348;2022-09-09T05:38:29;6.82;;;5.50;;
7263;SDS011;3673;52.480;13.348;2022-09-09T05:40:57;9.02;;;4.75;;
7263;SDS011;3673;52.480;13.348;2022-09-09T05:43:24;9.65;;;5.30;;
7263;SDS011;3673;52.480;13.348;2022-09-09T05:46:02;8.02;;;4.90;;
7263;SDS011;3673;52.480;13.348;2022-09-09T05:48:31;7.75;;;5.13;;
7263;SDS011;3673;52.480;13.348;2022-09-09T05:51:00;8.20;;;5.57;;
7263;SDS011;3673;52.480;13.348;2022-09-09T05:53:28;5.07;;;4.57;;
7263;SDS011;3673;52.480;13.348;2022-09-09T05:55:59;8.48;;;5.53;;
7263;SDS011;3673;52.480;13.348;2022-09-09T05:58:29;7.18;;;4.63;;
7263;SDS011;3673;52.480;13.348;2022-09-09T06:01:01;7.57;;;4.65;;
7263;SDS011;3673;52.480;13.348;2022-09-09T06:03:31;7.22;;;4.28;;
7263;SDS011;3673;52.480;13.348;2022-09-09T06:05:59;6.03;;;4.18;;
7263;SDS011;3673;52.480;13.348;2022-09-09T06:08:30;4.55;;;3.95;;
7263;SDS011;3673;52.480;13.348;2022-09-09T06:11:01;7.85;;;4.07;;
7263;SDS011;3673;52.480;13.348;2022-09-09T06:13:30;5.32;;;4.38;;
7263;SDS011;3673;52.480;13.348;2022-09-09T06:16:03;10.38;;;4.25;;
7263;SDS011;3673;52.480;13.348;2022-09-09T06:18:36;7.60;;;4.25;;
7263;SDS011;3673;52.480;13.348;2022-09-09T06:21:07;5.00;;;3.88;;
7263;SDS011;3673;52.480;13.348;2022-09-09T06:23:40;6.47;;;3.88;;
7263;SDS011;3673;52.480;13.348;2022-09-09T06:26:10;4.25;;;3.35;;
7263;SDS011;3673;52.480;13.348;2022-09-09T06:28:39;9.35;;;4.03;;
7263;SDS011;3673;52.480;13.348;2022-09-09T06:31:09;4.75;;;3.42;;
7263;SDS011;3673;52.480;13.348;2022-09-09T06:33:39;9.82;;;3.50;;
7263;SDS011;3673;52.480;13.348;2022-09-09T06:36:10;9.40;;;3.70;;
7263;SDS011;3673;52.480;13.348;2022-09-09T06:38:40;7.75;;;3.67;;
7263;SDS011;3673;52.480;13.348;2022-09-09T06:41:07;4.88;;;3.30;;
7263;SDS011;3673;52.480;13.348;2022-09-09T06:43:35;3.95;;;3.13;;
7263;SDS011;3673;52.480;13.348;2022-09-09T06:46:03;8.82;;;3.67;;
7263;SDS011;3673;52.480;13.348;2022-09-09T06:48:34;6.82;;;3.28;;
7263;SDS011;3673;52.480;13.348;2022-09-09T06:51:09;4.07;;;3.22;;
7263;SDS011;3673;52.480;13.348;2022-09-09T06:53:40;4.18;;;3.40;;
7263;SDS011;3673;52.480;13.348;2022-09-09T06:56:19;5.80;;;4.15;;
7263;SDS011;3673;52.480;13.348;2022-09-09T06:58:49;7.85;;;3.40;;
7263;SDS011;3673;52.480;13.348;2022-09-09T07:01:18;16.45;;;3.85;;
7263;SDS011;3673;52.480;13.348;2022-09-09T07:03:49;5.80;;;3.63;;
7263;SDS011;3673;52.480;13.348;2022-09-09T07:06:18;7.30;;;3.63;;
7263;SDS011;3673;52.480;13.348;2022-09-09T07:08:49;6.22;;;3.28;;
7263;SDS011;3673;52.480;13.348;2022-09-09T07:11:17;7.38;;;3.20;;
7263;SDS011;3673;52.480;13.348;2022-09-09T07:13:45;16.02;;;3.95;;
7263;SDS011;3673;52.480;13.348;2022-09-09T07:16:13;8.25;;;2.97;;
7263;SDS011;3673;52.480;13.348;2022-09-09T07:18:42;9.48;;;3.35;;
7263;SDS011;3673;52.480;13.348;2022-09-09T07:21:12;5.60;;;2.42;;
7263;SDS011;3673;52.480;13.348;2022-09-09T07:23:41;6.13;;;2.70;;
7263;SDS011;3673;52.480;13.348;2022-09-09T07:26:08;11.38;;;2.90;;
7263;SDS011;3673;52.480;13.348;2022-09-09T07:28:38;4.28;;;2.63;;
7263;SDS011;3673;52.480;13.348;2022-09-09T07:31:07;4.68;;;2.63;;
7263;SDS011;3673;52.480;13.348;2022-09-09T07:33:41;8.30;;;2.40;;
7263;SDS011;3673;52.480;13.348;2022-09-09T07:36:12;6.32;;;2.70;;
7263;SDS011;3673;52.480;13.348;2022-09-09T07:38:43;9.85;;;2.50;;
7263;SDS011;3673;52.480;13.348;2022-09-09T07:41:13;6.93;;;2.92;;
7263;SDS011;3673;52.480;13.348;2022-09-09T07:43:44;5.68;;;2.40;;
7263;SDS011;3673;52.480;13.348;2022-09-09T07:46:14;6.20;;;2.47;;
7263;SDS011;3673;52.480;13.348;2022-09-09T07:48:43;7.25;;;2.10;;
7263;SDS011;3673;52.480;13.348;2022-09-09T07:51:13;3.00;;;2.03;;
7263;SDS011;3673;52.480;13.348;2022-09-09T07:53:43;5.72;;;2.22;;
7263;SDS011;3673;52.480;13.348;2022-09-09T07:56:11;8.18;;;2.60;;
7263;SDS011;3673;52.480;13.348;2022-09-09T07:58:42;4.55;;;2.05;;
7263;SDS011;3673;52.480;13.348;2022-09-09T08:01:12;4.13;;;2.10;;
7263;SDS011;3673;52.480;13.348;2022-09-09T08:03:44;5.40;;;2.00;;
7263;SDS011;3673;52.480;13.348;2022-09-09T08:06:14;5.78;;;2.08;;
7263;SDS011;3673;52.480;13.348;2022-09-09T08:08:43;4.90;;;1.80;;
7263;SDS011;3673;52.480;13.348;2022-09-09T08:11:13;6.78;;;2.08;;
7263;SDS011;3673;52.480;13.348;2022-09-09T08:13:41;4.82;;;2.00;;
7263;SDS011;3673;52.480;13.348;2022-09-09T08:16:10;4.90;;;1.63;;
7263;SDS011;3673;52.480;13.348;2022-09-09T08:18:39;4.15;;;2.20;;
7263;SDS011;3673;52.480;13.348;2022-09-09T08:21:08;5.47;;;2.50;;
7263;SDS011;3673;52.480;13.348;2022-09-09T08:23:39;4.70;;;2.40;;
7263;SDS011;3673;52.480;13.348;2022-09-09T08:26:07;4.90;;;1.90;;
7263;SDS011;3673;52.480;13.348;2022-09-09T08:28:38;5.60;;;1.85;;
7263;SDS011;3673;52.480;13.348;2022-09-09T08:31:10;6.15;;;1.73;;
7263;SDS011;3673;52.480;13.348;2022-09-09T08:33:39;5.00;;;2.13;;
7263;SDS011;3673;52.480;13.348;2022-09-09T08:36:08;10.07;;;2.10;;
7263;SDS011;3673;52.480;13.348;2022-09-09T08:38:39;5.63;;;1.92;;
7263;SDS011;3673;52.480;13.348;2022-09-09T08:41:10;5.55;;;1.80;;
7263;SDS011;3673;52.480;13.348;2022-09-09T08:44:14;8.68;;;2.17;;
7263;SDS011;3673;52.480;13.348;2022-09-09T08:46:54;2.25;;;1.40;;
7263;SDS011;3673;52.480;13.348;2022-09-09T08:49:35;7.97;;;1.85;;
7263;SDS011;3673;52.480;13.348;2022-09-09T08:52:27;7.38;;;2.10;;
7263;SDS011;3673;52.480;13.348;2022-09-09T08:55:02;3.17;;;1.60;;
7263;SDS011;3673;52.480;13.348;2022-09-09T08:57:41;3.63;;;1.67;;
7263;SDS011;3673;52.480;13.348;2022-09-09T09:00:11;6.40;;;1.77;;
7263;SDS011;3673;52.480;13.348;2022-09-09T09:02:40;8.90;;;1.88;;
7263;SDS011;3673;52.480;13.348;2022-09-09T09:05:16;4.28;;;1.90;;
7263;SDS011;3673;52.480;13.348;2022-09-09T09:10:32;4.15;;;2.03;;
7263;SDS011;3673;52.480;13.348;2022-09-09T09:13:13;7.78;;;2.30;;
7263;SDS011;3673;52.480;13.348;2022-09-09T09:15:44;3.50;;;1.58;;
7263;SDS011;3673;52.480;13.348;2022-09-09T09:18:18;7.18;;;2.33;;
7263;SDS011;3673;52.480;13.348;2022-09-09T09:20:49;8.15;;;1.85;;
7263;SDS011;3673;52.480;13.348;2022-09-09T09:23:25;2.75;;;1.60;;
7263;SDS011;3673;52.480;13.348;2022-09-09T09:26:07;4.65;;;1.80;;
7263;SDS011;3673;52.480;13.348;2022-09-09T09:28:36;4.45;;;1.63;;
7263;SDS011;3673;52.480;13.348;2022-09-09T09:31:05;4.97;;;1.50;;
7263;SDS011;3673;52.480;13.348;2022-09-09T09:33:36;4.00;;;1.63;;
7263;SDS011;3673;52.480;13.348;2022-09-09T09:36:13;4.13;;;2.08;;
7263;SDS011;3673;52.480;13.348;2022-09-09T09:38:50;5.68;;;3.30;;
7263;SDS011;3673;52.480;13.348;2022-09-09T09:41:29;3.15;;;1.65;;
7263;SDS011;3673;52.480;13.348;2022-09-09T09:44:00;2.13;;;1.20;;
7263;SDS011;3673;52.480;13.348;2022-09-09T09:46:29;4.10;;;1.40;;
7263;SDS011;3673;52.480;13.348;2022-09-09T09:48:58;5.97;;;2.38;;
7263;SDS011;3673;52.480;13.348;2022-09-09T09:51:26;5.25;;;2.67;;
7263;SDS011;3673;52.480;13.348;2022-09-09T09:54:08;13.27;;;7.60;;
7263;SDS011;3673;52.480;13.348;2022-09-09T09:56:45;8.60;;;3.22;;
7263;SDS011;3673;52.480;13.348;2022-09-09T09:59:19;8.38;;;2.08;;
7263;SDS011;3673;52.480;13.348;2022-09-09T10:04:43;12.70;;;5.57;;
7263;SDS011;3673;52.480;13.348;2022-09-09T10:07:11;6.78;;;1.65;;
7263;SDS011;3673;52.480;13.348;2022-09-09T10:09:38;3.88;;;1.63;;
7263;SDS011;3673;52.480;13.348;2022-09-09T10:12:09;5.90;;;2.15;;
7263;SDS011;3673;52.480;13.348;2022-09-09T10:14:48;4.95;;;1.75;;
7263;SDS011;3673;52.480;13.348;2022-09-09T10:17:25;5.93;;;1.95;;
7263;SDS011;3673;52.480;13.348;2022-09-09T10:20:10;3.83;;;2.28;;
7263;SDS011;3673;52.480;13.348;2022-09-09T10:22:56;5.18;;;2.15;;
7263;SDS011;3673;52.480;13.348;2022-09-09T10:25:38;3.47;;;1.60;;
7263;SDS011;3673;52.480;13.348;2022-09-09T10:28:33;5.15;;;1.42;;
7263;SDS011;3673;52.480;13.348;2022-09-09T10:31:25;5.78;;;1.58;;
7263;SDS011;3673;52.480;13.348;2022-09-09T10:34:05;4.53;;;1.10;;
7263;SDS011;3673;52.480;13.348;2022-09-09T10:36:49;3.83;;;1.45;;
7263;SDS011;3673;52.480;13.348;2022-09-09T10:39:19;4.18;;;1.25;;
7263;SDS011;3673;52.480;13.348;2022-09-09T10:42:02;2.28;;;1.20;;
7263;SDS011;3673;52.480;13.348;2022-09-09T10:44:38;7.78;;;1.50;;
7263;SDS011;3673;52.480;13.348;2022-09-09T10:47:33;2.45;;;1.23;;
7263;SDS011;3673;52.480;13.348;2022-09-09T10:53:21;3.22;;;1.20;;
7263;SDS011;3673;52.480;13.348;2022-09-09T10:56:01;2.45;;;1.20;;
7263;SDS011;3673;52.480;13.348;2022-09-09T10:58:35;3.30;;;1.50;;
7263;SDS011;3673;52.480;13.348;2022-09-09T11:01:12;5.63;;;2.42;;
7263;SDS011;3673;52.480;13.348;2022-09-09T11:03:45;5.93;;;1.75;;
7263;SDS011;3673;52.480;13.348;2022-09-09T11:06:21;2.08;;;1.30;;
7263;SDS011;3673;52.480;13.348;2022-09-09T11:08:57;4.45;;;1.30;;
7263;SDS011;3673;52.480;13.348;2022-09-09T11:11:29;2.63;;;1.40;;
7263;SDS011;3673;52.480;13.348;2022-09-09T11:14:01;2.95;;;1.20;;
7263;SDS011;3673;52.480;13.348;2022-09-09T11:16:38;3.85;;;1.60;;
7263;SDS011;3673;52.480;13.348;2022-09-09T11:19:11;4.50;;;1.45;;
7263;SDS011;3673;52.480;13.348;2022-09-09T11:21:45;2.63;;;1.50;;
7263;SDS011;3673;52.480;13.348;2022-09-09T11:24:15;2.50;;;1.40;;
7263;SDS011;3673;52.480;13.348;2022-09-09T11:26:50;3.03;;;1.23;;
7263;SDS011;3673;52.480;13.348;2022-09-09T11:29:37;3.47;;;1.00;;
7263;SDS011;3673;52.480;13.348;2022-09-09T11:32:29;3.03;;;1.90;;
7263;SDS011;3673;52.480;13.348;2022-09-09T11:35:20;4.35;;;1.40;;
7263;SDS011;3673;52.480;13.348;2022-09-09T11:38:03;2.33;;;1.10;;
7263;SDS011;3673;52.480;13.348;2022-09-09T11:40:44;5.80;;;1.95;;
7263;SDS011;3673;52.480;13.348;2022-09-09T11:43:12;1.90;;;1.02;;
7263;SDS011;3673;52.480;13.348;2022-09-09T11:45:50;2.00;;;0.82;;
7263;SDS011;3673;52.480;13.348;2022-09-09T11:48:25;2.60;;;1.63;;
7263;SDS011;3673;52.480;13.348;2022-09-09T11:50:59;2.17;;;1.10;;
7263;SDS011;3673;52.480;13.348;2022-09-09T11:53:32;4.72;;;1.23;;
7263;SDS011;3673;52.480;13.348;2022-09-09T11:56:01;1.58;;;0.80;;
7263;SDS011;3673;52.480;13.348;2022-09-09T11:58:41;2.63;;;1.17;;
7263;SDS011;3673;52.480;13.348;2022-09-09T12:01:26;3.83;;;1.50;;
7263;SDS011;3673;52.480;13.348;2022-09-09T12:06:42;4.53;;;1.40;;
7263;SDS011;3673;52.480;13.348;2022-09-09T12:09:16;4.78;;;1.00;;
7263;SDS011;3673;52.480;13.348;2022-09-09T12:11:49;2.65;;;1.30;;
7263;SDS011;3673;52.480;13.348;2022-09-09T12:14:21;3.05;;;1.15;;
7263;SDS011;3673;52.480;13.348;2022-09-09T12:17:08;6.32;;;1.60;;
7263;SDS011;3673;52.480;13.348;2022-09-09T12:19:46;2.58;;;1.45;;
7263;SDS011;3673;52.480;13.348;2022-09-09T12:22:16;2.08;;;1.10;;
7263;SDS011;3673;52.480;13.348;2022-09-09T12:24:54;5.72;;;1.33;;
7263;SDS011;3673;52.480;13.348;2022-09-09T12:27:33;4.38;;;0.90;;
7263;SDS011;3673;52.480;13.348;2022-09-09T12:30:09;5.60;;;1.25;;
7263;SDS011;3673;52.480;13.348;2022-09-09T12:32:40;2.78;;;1.40;;
7263;SDS011;3673;52.480;13.348;2022-09-09T12:35:11;4.15;;;2.67;;
7263;SDS011;3673;52.480;13.348;2022-09-09T12:37:45;2.78;;;0.90;;
7263;SDS011;3673;52.480;13.348;2022-09-09T12:40:20;5.35;;;1.40;;
7263;SDS011;3673;52.480;13.348;2022-09-09T12:42:49;3.25;;;1.02;;
7263;SDS011;3673;52.480;13.348;2022-09-09T12:45:18;3.92;;;1.15;;
7263;SDS011;3673;52.480;13.348;2022-09-09T12:47:47;2.75;;;1.33;;
7263;SDS011;3673;52.480;13.348;2022-09-09T12:50:20;3.25;;;1.25;;
7263;SDS011;3673;52.480;13.348;2022-09-09T12:52:52;3.35;;;1.20;;
7263;SDS011;3673;52.480;13.348;2022-09-09T12:55:24;4.15;;;1.50;;
7263;SDS011;3673;52.480;13.348;2022-09-09T12:57:55;3.95;;;1.30;;
7263;SDS011;3673;52.480;13.348;2022-09-09T13:00:24;4.30;;;1.17;;
7263;SDS011;3673;52.480;13.348;2022-09-09T13:02:53;3.90;;;0.95;;
7263;SDS011;3673;52.480;13.348;2022-09-09T13:05:23;4.53;;;1.00;;
7263;SDS011;3673;52.480;13.348;2022-09-09T13:08:00;3.95;;;1.00;;
7263;SDS011;3673;52.480;13.348;2022-09-09T13:10:30;2.40;;;1.05;;
7263;SDS011;3673;52.480;13.348;2022-09-09T13:13:03;3.78;;;1.30;;
7263;SDS011;3673;52.480;13.348;2022-09-09T13:15:32;4.13;;;1.30;;
7263;SDS011;3673;52.480;13.348;2022-09-09T13:18:01;2.33;;;1.23;;
7263;SDS011;3673;52.480;13.348;2022-09-09T13:20:34;5.60;;;1.13;;
7263;SDS011;3673;52.480;13.348;2022-09-09T13:23:02;2.85;;;1.15;;
7263;SDS011;3673;52.480;13.348;2022-09-09T13:25:29;4.32;;;1.25;;
7263;SDS011;3673;52.480;13.348;2022-09-09T13:27:57;3.78;;;1.40;;
7263;SDS011;3673;52.480;13.348;2022-09-09T13:30:26;2.28;;;0.80;;
7263;SDS011;3673;52.480;13.348;2022-09-09T13:32:59;6.57;;;1.65;;
7263;SDS011;3673;52.480;13.348;2022-09-09T13:35:32;3.40;;;1.42;;
7263;SDS011;3673;52.480;13.348;2022-09-09T13:38:06;3.30;;;1.27;;
7263;SDS011;3673;52.480;13.348;2022-09-09T13:40:34;4.50;;;1.17;;
7263;SDS011;3673;52.480;13.348;2022-09-09T13:43:03;3.47;;;1.65;;
7263;SDS011;3673;52.480;13.348;2022-09-09T13:45:30;4.30;;;1.98;;
7263;SDS011;3673;52.480;13.348;2022-09-09T13:47:59;3.63;;;1.75;;
7263;SDS011;3673;52.480;13.348;2022-09-09T13:50:38;2.42;;;1.35;;
7263;SDS011;3673;52.480;13.348;2022-09-09T13:53:06;4.40;;;1.42;;
7263;SDS011;3673;52.480;13.348;2022-09-09T13:55:34;6.30;;;1.55;;
7263;SDS011;3673;52.480;13.348;2022-09-09T13:58:04;5.10;;;1.67;;
7263;SDS011;3673;52.480;13.348;2022-09-09T14:00:31;2.38;;;1.27;;
7263;SDS011;3673;52.480;13.348;2022-09-09T14:03:01;5.03;;;1.25;;
7263;SDS011;3673;52.480;13.348;2022-09-09T14:05:29;2.30;;;1.17;;
7263;SDS011;3673;52.480;13.348;2022-09-09T14:07:59;2.92;;;1.38;;
7263;SDS011;3673;52.480;13.348;2022-09-09T14:10:29;3.03;;;1.17;;
7263;SDS011;3673;52.480;13.348;2022-09-09T14:12:56;2.97;;;1.40;;
7263;SDS011;3673;52.480;13.348;2022-09-09T14:15:23;3.17;;;1.20;;
7263;SDS011;3673;52.480;13.348;2022-09-09T14:17:52;3.33;;;1.02;;
7263;SDS011;3673;52.480;13.348;2022-09-09T14:20:18;3.25;;;1.13;;
7263;SDS011;3673;52.480;13.348;2022-09-09T14:22:46;3.05;;;1.35;;
7263;SDS011;3673;52.480;13.348;2022-09-09T14:25:14;2.90;;;1.00;;
7263;SDS011;3673;52.480;13.348;2022-09-09T14:27:42;3.20;;;0.90;;
7263;SDS011;3673;52.480;13.348;2022-09-09T14:30:11;2.60;;;0.90;;
7263;SDS011;3673;52.480;13.348;2022-09-09T14:32:38;2.40;;;1.20;;
7263;SDS011;3673;52.480;13.348;2022-09-09T14:35:05;4.55;;;1.08;;
7263;SDS011;3673;52.480;13.348;2022-09-09T14:37:33;1.77;;;0.65;;
7263;SDS011;3673;52.480;13.348;2022-09-09T14:40:00;5.13;;;1.17;;
7263;SDS011;3673;52.480;13.348;2022-09-09T14:42:29;3.42;;;1.02;;
7263;SDS011;3673;52.480;13.348;2022-09-09T14:44:56;4.45;;;1.52;;
7263;SDS011;3673;52.480;13.348;2022-09-09T14:47:23;10.25;;;1.45;;
7263;SDS011;3673;52.480;13.348;2022-09-09T14:49:51;4.75;;;1.27;;
7263;SDS011;3673;52.480;13.348;2022-09-09T14:52:18;8.43;;;1.60;;
7263;SDS011;3673;52.480;13.348;2022-09-09T14:54:45;2.63;;;1.10;;
7263;SDS011;3673;52.480;13.348;2022-09-09T14:57:12;4.55;;;1.00;;
7263;SDS011;3673;52.480;13.348;2022-09-09T14:59:40;2.97;;;1.15;;
7263;SDS011;3673;52.480;13.348;2022-09-09T15:02:07;4.90;;;1.13;;
7263;SDS011;3673;52.480;13.348;2022-09-09T15:04:35;3.67;;;1.55;;
7263;SDS011;3673;52.480;13.348;2022-09-09T15:07:02;1.60;;;0.98;;
7263;SDS011;3673;52.480;13.348;2022-09-09T15:09:28;5.18;;;2.47;;
7263;SDS011;3673;52.480;13.348;2022-09-09T15:11:55;5.63;;;1.00;;
7263;SDS011;3673;52.480;13.348;2022-09-09T15:14:22;4.47;;;1.27;;
7263;SDS011;3673;52.480;13.348;2022-09-09T15:16:52;2.15;;;1.30;;
7263;SDS011;3673;52.480;13.348;2022-09-09T15:19:19;5.32;;;1.35;;
7263;SDS011;3673;52.480;13.348;2022-09-09T15:21:46;8.07;;;5.55;;
7263;SDS011;3673;52.480;13.348;2022-09-09T15:24:15;3.53;;;1.73;;
7263;SDS011;3673;52.480;13.348;2022-09-09T15:26:44;2.08;;;1.38;;
7263;SDS011;3673;52.480;13.348;2022-09-09T15:29:13;2.17;;;1.23;;
7263;SDS011;3673;52.480;13.348;2022-09-09T15:31:44;5.57;;;1.63;;
7263;SDS011;3673;52.480;13.348;2022-09-09T15:34:18;8.77;;;1.58;;
7263;SDS011;3673;52.480;13.348;2022-09-09T15:36:59;4.78;;;1.45;;
7263;SDS011;3673;52.480;13.348;2022-09-09T15:39:32;2.45;;;1.20;;
7263;SDS011;3673;52.480;13.348;2022-09-09T15:41:59;5.28;;;1.33;;
7263;SDS011;3673;52.480;13.348;2022-09-09T15:44:27;2.50;;;1.00;;
7263;SDS011;3673;52.480;13.348;2022-09-09T15:46:56;5.50;;;1.75;;
7263;SDS011;3673;52.480;13.348;2022-09-09T15:49:27;4.47;;;1.55;;
7263;SDS011;3673;52.480;13.348;2022-09-09T15:51:55;2.13;;;0.73;;